Time;durP1;ratioP1;P1;durP2;ratioP2;P2;SDS_P1;SDS_P2;PMS_P1;PMS_P2;Temp;Humidity;BMP_temperature;BMP_pressure;BME280_temperature;BME280_humidity;BME280_pressure;Samples;Min_cycle;Max_cycle;Signal;HPM_P1;HPM_P2
2022/08/30 00:02:52;;;;;;;10.70;3.60;;;;;;;15.01;65.85;99437.41;105999;1276;22840;-83
2022/08/30 00:05:19;;;;;;;9.00;3.90;;;;;;;14.99;65.88;99436.69;105921;1277;22572;-82
2022/08/30 00:07:46;;;;;;;8.80;3.20;;;;;;;14.94;65.67;99433.91;105985;1276;22834;-85
2022/08/30 00:10:13;;;;;;;8.90;3.40;;;;;;;14.87;65.76;99434.13;105822;1280;22537;-83
2022/08/30 00:12:43;;;;;;;9.40;3.40;;;;;;;14.83;65.89;99432.27;105803;1279;22543;-82
2022/08/30 00:15:12;;;;;;;10.50;3.60;;;;;;;14.80;65.91;99430.20;105880;1277;22550;-83
2022/08/30 00:17:40;;;;;;;9.30;3.50;;;;;;;14.82;66.06;99431.49;105922;1277;24141;-83
2022/08/30 00:20:11;;;;;;;8.90;3.70;;;;;;;14.77;66.00;99426.35;105859;1280;22541;-85
2022/08/30 00:22:39;;;;;;;11.30;3.70;;;;;;;14.72;66.03;99427.84;104782;1277;1610310;-82
2022/08/30 00:25:07;;;;;;;10.20;3.80;;;;;;;14.69;66.23;99426.84;105989;1276;22813;-82
2022/08/30 00:27:40;;;;;;;10.10;3.80;;;;;;;14.67;66.27;99429.52;105864;1280;25975;-82
2022/08/30 00:30:11;;;;;;;11.40;3.90;;;;;;;14.64;66.37;99431.78;105775;1280;24381;-86
2022/08/30 00:32:39;;;;;;;11.50;3.60;;;;;;;14.60;66.39;99431.34;106007;1279;22544;-88
2022/08/30 00:35:11;;;;;;;9.80;3.70;;;;;;;14.58;66.47;99430.12;105760;1277;22553;-83
2022/08/30 00:37:42;;;;;;;12.00;3.80;;;;;;;14.59;66.64;99430.52;105913;1281;22555;-82
2022/08/30 00:40:10;;;;;;;12.00;4.50;;;;;;;14.63;66.64;99431.83;105930;1279;22656;-86
2022/08/30 00:42:42;;;;;;;10.60;4.40;;;;;;;14.65;66.71;99431.86;105877;1280;22545;-86
2022/08/30 00:45:21;;;;;;;10.20;4.00;;;;;;;14.68;66.64;99431.61;105887;1280;24434;-84
2022/08/30 00:47:51;;;;;;;10.20;4.30;;;;;;;14.70;66.68;99433.20;105887;1278;24269;-82
2022/08/30 00:50:20;;;;;;;11.30;4.00;;;;;;;14.71;66.70;99428.29;105728;1280;22584;-82
2022/08/30 00:52:52;;;;;;;10.40;3.90;;;;;;;14.69;66.69;99422.34;105930;1280;22562;-85
2022/08/30 00:55:24;;;;;;;10.80;3.60;;;;;;;14.67;66.73;99423.63;105887;1280;25580;-83
2022/08/30 00:57:59;;;;;;;8.80;3.90;;;;;;;14.64;66.70;99418.88;106062;1278;22571;-84
2022/08/30 01:00:29;;;;;;;9.40;4.10;;;;;;;14.62;66.84;99420.04;105803;1280;25523;-83
2022/08/30 01:02:57;;;;;;;10.70;3.90;;;;;;;14.59;66.85;99423.52;106064;1277;22731;-81
2022/08/30 01:05:31;;;;;;;10.10;4.40;;;;;;;14.52;66.85;99422.02;105120;1279;25565;-81
2022/08/30 01:07:58;;;;;;;10.20;4.40;;;;;;;14.47;67.08;99421.30;105522;1280;25556;-83
2022/08/30 01:10:41;;;;;;;11.10;4.10;;;;;;;14.43;66.98;99421.09;105833;1281;25590;-86
2022/08/30 01:13:16;;;;;;;11.00;3.80;;;;;;;14.39;67.19;99417.81;105920;1279;25242;-84
2022/08/30 01:15:45;;;;;;;8.00;3.40;;;;;;;14.42;67.22;99416.34;105995;1279;22537;-83
2022/08/30 01:18:16;;;;;;;9.40;3.40;;;;;;;14.48;67.27;99417.79;105894;1280;22549;-82
2022/08/30 01:20:56;;;;;;;9.10;3.60;;;;;;;14.57;67.42;99413.36;105869;1280;22538;-82
2022/08/30 01:23:27;;;;;;;9.80;3.40;;;;;;;14.64;67.40;99418.16;105885;1279;22612;-81
2022/08/30 01:26:01;;;;;;;10.00;3.40;;;;;;;14.74;67.60;99418.38;106016;1279;22704;-83
2022/08/30 01:28:32;;;;;;;11.00;4.20;;;;;;;14.81;67.66;99416.29;106076;1277;22552;-82
2022/08/30 01:31:03;;;;;;;8.50;3.60;;;;;;;14.89;67.43;99414.38;105756;1277;22549;-87
2022/08/30 01:33:39;;;;;;;10.10;3.80;;;;;;;14.95;67.52;99411.79;105857;1280;22663;-84
2022/08/30 01:36:12;;;;;;;10.40;3.70;;;;;;;14.98;67.56;99410.25;105995;1279;22549;-81
2022/08/30 01:38:54;;;;;;;9.90;3.60;;;;;;;15.03;67.72;99414.83;105997;1279;25299;-82
2022/08/30 01:41:28;;;;;;;8.70;3.70;;;;;;;15.12;67.79;99418.91;105824;1279;25379;-82
2022/08/30 01:44:01;;;;;;;9.70;3.30;;;;;;;15.21;67.76;99421.69;105893;1279;25607;-82
2022/08/30 01:46:45;;;;;;;9.70;3.60;;;;;;;15.28;67.77;99424.02;105924;1280;22570;-84
2022/08/30 01:49:16;;;;;;;10.90;4.30;;;;;;;15.32;67.73;99425.29;105850;1279;22538;-82
2022/08/30 01:51:43;;;;;;;9.10;3.80;;;;;;;15.33;67.74;99426.75;106016;1279;24302;-83
2022/08/30 01:54:14;;;;;;;19.00;4.40;;;;;;;15.35;67.66;99427.17;105910;1278;24230;-83
2022/08/30 01:56:41;;;;;;;9.20;4.10;;;;;;;15.36;67.86;99429.45;106062;1278;22542;-83
2022/08/30 01:59:13;;;;;;;11.90;4.50;;;;;;;15.38;67.84;99430.66;105862;1280;24361;-82
2022/08/30 02:01:42;;;;;;;10.30;4.00;;;;;;;15.39;67.81;99428.04;105967;1280;22540;-83
2022/08/30 02:04:25;;;;;;;9.40;4.50;;;;;;;15.41;67.84;99426.79;105936;1279;25482;-83
2022/08/30 02:06:54;;;;;;;10.10;4.80;;;;;;;15.44;67.91;99429.42;105970;1279;25529;-82
2022/08/30 02:09:24;;;;;;;11.00;4.40;;;;;;;15.45;67.81;99433.14;105824;1280;22600;-83
2022/08/30 02:12:06;;;;;;;11.00;4.50;;;;;;;15.45;67.86;99430.08;105987;1279;24308;-82
2022/08/30 02:14:49;;;;;;;11.50;4.50;;;;;;;15.45;67.90;99428.29;105874;1279;25331;-82
2022/08/30 02:17:31;;;;;;;11.30;4.50;;;;;;;15.44;67.86;99426.05;106114;1278;23290;-83
2022/08/30 02:20:22;;;;;;;8.90;4.10;;;;;;;15.44;67.93;99428.38;106029;1279;25509;-83
2022/08/30 02:23:09;;;;;;;8.90;3.10;;;;;;;15.45;68.07;99425.77;106004;1280;23324;-83
2022/08/30 02:25:36;;;;;;;9.70;3.40;;;;;;;15.45;67.97;99426.48;105965;1279;22591;-83
2022/08/30 02:28:16;;;;;;;10.40;3.60;;;;;;;15.47;67.90;99427.59;106078;1277;22708;-87
2022/08/30 02:30:47;;;;;;;11.10;4.00;;;;;;;15.50;68.06;99427.88;105901;1280;24217;-86
2022/08/30 02:33:17;;;;;;;9.50;3.70;;;;;;;15.53;68.06;99427.96;105808;1280;22574;-82
2022/08/30 02:35:59;;;;;;;11.30;4.00;;;;;;;15.55;68.06;99424.91;105995;1279;23937;-84
2022/08/30 02:38:50;;;;;;;11.40;3.90;;;;;;;15.55;68.14;99424.77;106000;1277;22612;-83
2022/08/30 02:41:30;;;;;;;10.40;4.70;;;;;;;15.54;68.20;99423.88;105970;1280;25384;-83
2022/08/30 02:43:59;;;;;;;9.80;4.10;;;;;;;15.55;68.19;99425.25;105726;1280;22541;-87
2022/08/30 02:46:38;;;;;;;9.70;4.10;;;;;;;15.56;68.23;99427.27;105835;1279;24211;-84
2022/08/30 02:49:08;;;;;;;8.00;3.20;;;;;;;15.59;68.29;99426.48;106011;1278;25395;-82
2022/08/30 02:51:48;;;;;;;8.30;3.30;;;;;;;15.65;68.31;99423.72;105888;1280;22575;-86
2022/08/30 02:54:35;;;;;;;8.90;3.80;;;;;;;15.73;68.49;99422.66;106015;1279;23908;-84
2022/08/30 02:57:03;;;;;;;8.20;3.70;;;;;;;15.80;68.50;99423.45;105902;1281;23766;-81
2022/08/30 02:59:35;;;;;;;8.60;3.80;;;;;;;15.84;68.46;99422.55;105900;1280;25330;-83
2022/08/30 03:02:05;;;;;;;8.80;3.90;;;;;;;15.85;68.63;99422.27;105978;1279;22599;-82
2022/08/30 03:05:11;;;;;;;8.70;3.80;;;;;;;15.85;68.51;99417.44;106014;1279;22541;-84
2022/08/30 03:07:43;;;;;;;10.20;3.40;;;;;;;15.85;68.74;99421.39;106061;1277;25641;-83
2022/08/30 03:10:16;;;;;;;11.50;4.10;;;;;;;15.84;68.67;99421.30;105828;1280;22541;-82
2022/08/30 03:12:47;;;;;;;9.90;3.80;;;;;;;15.83;68.65;99421.37;105901;1277;22557;-84
2022/08/30 03:15:15;;;;;;;10.80;3.80;;;;;;;15.82;68.75;99422.38;105936;1276;22557;-82
2022/08/30 03:17:42;;;;;;;10.80;4.10;;;;;;;15.81;68.62;99424.48;105932;1280;22724;-82
2022/08/30 03:20:10;;;;;;;9.80;4.00;;;;;;;15.82;68.76;99420.42;105883;1277;22603;-84
2022/08/30 03:22:53;;;;;;;12.00;4.70;;;;;;;15.85;68.88;99418.32;105867;1279;25457;-82
2022/08/30 03:25:21;;;;;;;11.10;3.90;;;;;;;15.84;68.81;99422.02;105949;1278;22568;-86
2022/08/30 03:27:49;;;;;;;7.80;3.60;;;;;;;15.79;68.73;99425.30;105962;1277;24204;-85
2022/08/30 03:30:18;;;;;;;8.00;3.50;;;;;;;15.76;68.75;99423.77;105869;1277;22544;-84
2022/08/30 03:32:48;;;;;;;10.20;3.40;;;;;;;15.72;68.72;99419.84;105983;1276;24309;-83
2022/08/30 03:35:16;;;;;;;8.80;3.00;;;;;;;15.72;68.78;99416.63;105874;1281;22565;-84
2022/08/30 03:37:45;;;;;;;9.60;3.70;;;;;;;15.75;68.94;99419.58;106074;1276;24041;-83
2022/08/30 03:40:15;;;;;;;10.90;3.70;;;;;;;15.83;68.94;99415.88;105875;1281;22563;-82
2022/08/30 03:42:44;;;;;;;9.80;3.80;;;;;;;15.87;68.95;99420.65;106017;1277;25352;-83
2022/08/30 03:45:13;;;;;;;10.00;3.80;;;;;;;15.89;69.07;99420.98;105701;1276;24285;-85
2022/08/30 03:47:41;;;;;;;10.40;3.90;;;;;;;15.94;69.24;99422.02;105779;1279;22547;-83
2022/08/30 03:50:12;;;;;;;9.00;3.60;;;;;;;15.98;69.18;99426.73;105895;1281;22553;-82
2022/08/30 03:52:44;;;;;;;11.40;3.50;;;;;;;16.01;69.32;99426.59;105847;1281;22669;-85
2022/08/30 03:55:11;;;;;;;9.10;3.60;;;;;;;16.04;69.19;99427.95;105963;1278;22615;-84
2022/08/30 03:57:44;;;;;;;9.30;3.40;;;;;;;16.07;69.32;99428.77;105919;1278;24360;-82
2022/08/30 04:00:16;;;;;;;10.80;3.40;;;;;;;16.10;69.33;99430.46;105921;1277;24262;-83
2022/08/30 04:02:45;;;;;;;11.60;3.80;;;;;;;16.14;69.36;99431.60;106032;1277;22600;-83
2022/08/30 04:05:15;;;;;;;11.90;4.10;;;;;;;16.15;69.36;99433.45;105935;1276;24250;-83
2022/08/30 04:07:42;;;;;;;10.00;4.00;;;;;;;16.15;69.32;99431.32;105610;1280;25357;-82
2022/08/30 04:10:09;;;;;;;10.40;4.10;;;;;;;16.15;69.40;99436.50;105958;1276;22835;-82
2022/08/30 04:12:39;;;;;;;12.10;3.90;;;;;;;16.15;69.33;99436.70;105936;1281;23950;-82
2022/08/30 04:15:09;;;;;;;13.00;3.90;;;;;;;16.15;69.47;99434.75;105851;1280;25319;-81
2022/08/30 04:17:44;;;;;;;12.40;3.70;;;;;;;16.15;69.51;99441.31;105767;1278;25414;-82
2022/08/30 04:20:11;;;;;;;9.70;4.20;;;;;;;16.17;69.40;99443.31;105941;1277;25484;-83
2022/08/30 04:22:41;;;;;;;13.10;4.10;;;;;;;16.18;69.54;99446.84;105906;1277;22551;-82
2022/08/30 04:25:14;;;;;;;12.50;4.60;;;;;;;16.17;69.44;99444.60;105887;1278;22543;-82
2022/08/30 04:27:46;;;;;;;16.90;4.70;;;;;;;16.14;69.41;99447.69;105815;1282;25516;-83
2022/08/30 04:30:17;;;;;;;13.20;4.60;;;;;;;16.09;69.34;99445.35;105940;1278;22557;-82
2022/08/30 04:32:44;;;;;;;13.20;5.10;;;;;;;16.02;69.38;99444.52;105676;1281;24852;-83
2022/08/30 04:35:15;;;;;;;13.10;4.30;;;;;;;15.97;69.35;99445.16;105684;1276;22548;-82
2022/08/30 04:37:45;;;;;;;10.30;3.80;;;;;;;15.93;69.38;99448.02;105864;1277;22832;-84
2022/08/30 04:40:13;;;;;;;12.80;4.40;;;;;;;15.89;69.46;99445.59;105847;1281;22547;-83
2022/08/30 04:42:43;;;;;;;14.80;4.70;;;;;;;15.88;69.57;99450.95;105886;1277;22598;-82
2022/08/30 04:45:13;;;;;;;11.60;4.10;;;;;;;15.87;69.60;99454.08;105995;1279;24335;-85
2022/08/30 04:47:43;;;;;;;12.40;4.80;;;;;;;15.86;69.63;99455.27;105772;1277;22627;-83
2022/08/30 04:50:14;;;;;;;11.20;4.00;;;;;;;15.86;69.65;99461.39;105722;1279;22550;-87
2022/08/30 04:52:42;;;;;;;13.50;4.00;;;;;;;15.85;69.66;99458.95;105851;1278;22538;-83
2022/08/30 04:55:13;;;;;;;13.50;4.80;;;;;;;15.85;69.76;99461.10;105810;1277;24248;-84
2022/08/30 04:57:40;;;;;;;14.00;4.60;;;;;;;15.86;69.72;99461.86;105792;1282;24390;-83
2022/08/30 05:00:11;;;;;;;12.60;4.60;;;;;;;15.89;69.85;99457.98;105810;1277;25312;-82
2022/08/30 05:02:40;;;;;;;17.20;4.60;;;;;;;15.92;69.87;99457.89;105756;1281;25335;-84
2022/08/30 05:08:00;;;;;;;14.80;5.00;;;;;;;16.02;70.11;99463.56;105840;1281;22717;-86
2022/08/30 05:10:27;;;;;;;17.30;4.70;;;;;;;16.10;70.04;99464.23;105583;1282;22563;-82
2022/08/30 05:13:00;;;;;;;21.40;5.50;;;;;;;16.17;70.07;99467.56;105779;1280;25605;-82
2022/08/30 05:15:29;;;;;;;16.50;4.50;;;;;;;16.26;70.11;99467.34;105961;1278;24228;-84
2022/08/30 05:17:56;;;;;;;18.40;4.90;;;;;;;16.36;70.08;99469.66;105877;1280;24308;-81
2022/08/30 05:20:23;;;;;;;16.20;4.80;;;;;;;16.47;70.15;99471.58;105833;1278;24280;-83
2022/08/30 05:22:55;;;;;;;22.30;4.50;;;;;;;16.56;70.07;99469.83;105727;1283;23336;-82
2022/08/30 05:25:28;;;;;;;20.90;5.10;;;;;;;16.61;70.01;99472.43;105667;1278;24454;-84
2022/08/30 05:28:00;;;;;;;16.50;4.80;;;;;;;16.68;70.08;99478.80;105790;1278;24421;-83
2022/08/30 05:30:35;;;;;;;17.00;5.30;;;;;;;16.78;70.17;99482.05;105983;1277;24227;-83
2022/08/30 05:33:02;;;;;;;19.80;5.20;;;;;;;16.87;70.19;99478.17;105867;1281;24406;-83
2022/08/30 05:35:42;;;;;;;21.50;5.80;;;;;;;16.92;70.05;99480.79;105813;1278;24218;-82
2022/08/30 05:38:09;;;;;;;22.10;5.40;;;;;;;16.99;70.15;99479.95;105804;1278;22669;-84
2022/08/30 05:40:55;;;;;;;27.20;5.60;;;;;;;17.06;70.07;99482.93;105751;1281;22545;-82
2022/08/30 05:43:25;;;;;;;20.80;5.10;;;;;;;17.10;70.16;99481.63;105797;1278;23920;-84
2022/08/30 05:46:09;;;;;;;18.10;4.50;;;;;;;17.26;70.38;99481.20;105950;1281;23304;-82
2022/08/30 05:48:48;;;;;;;21.20;5.40;;;;;;;17.40;69.85;99480.14;105957;1278;25536;-84
2022/08/30 05:51:37;;;;;;;21.50;5.60;;;;;;;17.49;70.10;99477.80;105805;1281;22559;-83
2022/08/30 05:54:12;;;;;;;29.40;5.60;;;;;;;17.60;70.11;99481.45;105810;1278;23320;-82
2022/08/30 05:56:43;;;;;;;29.60;5.40;;;;;;;17.63;69.72;99481.57;105828;1281;25422;-86
2022/08/30 05:59:13;;;;;;;30.70;5.50;;;;;;;17.61;69.71;99480.70;105984;1278;22573;-83
2022/08/30 06:01:45;;;;;;;23.00;5.20;;;;;;;17.69;69.88;99482.92;105836;1279;25526;-82
2022/08/30 06:04:15;;;;;;;16.40;4.10;;;;;;;17.86;69.96;99483.48;105945;1280;22681;-83
2022/08/30 06:06:53;;;;;;;12.80;4.10;;;;;;;18.08;69.97;99484.23;105582;1284;23911;-82
2022/08/30 06:09:39;;;;;;;11.60;4.10;;;;;;;18.31;69.95;99489.11;105693;1277;24401;-83
2022/08/30 06:12:11;;;;;;;10.50;4.10;;;;;;;18.53;69.76;99486.69;105727;1277;24256;-88
2022/08/30 06:15:00;;;;;;;11.90;4.70;;;;;;;18.60;69.35;99491.46;105736;1280;25280;-82
2022/08/30 06:17:41;;;;;;;10.80;4.40;;;;;;;18.46;69.32;99492.43;105689;1281;23927;-86
2022/08/30 06:20:17;;;;;;;10.80;4.30;;;;;;;18.44;69.27;99491.64;105826;1281;22542;-86
2022/08/30 06:23:02;;;;;;;9.60;4.40;;;;;;;18.53;69.37;99491.21;105779;1278;25236;-83
2022/08/30 06:26:20;;;;;;;10.60;5.00;;;;;;;18.67;69.37;99493.33;105835;1278;23241;-84
2022/08/30 06:29:11;;;;;;;10.60;4.50;;;;;;;18.85;69.46;99490.43;105640;1278;22566;-84
2022/08/30 06:31:44;;;;;;;12.10;4.50;;;;;;;18.94;69.18;99486.64;105841;1281;25628;-82
2022/08/30 06:34:18;;;;;;;9.80;4.60;;;;;;;19.06;69.19;99486.22;105774;1278;22553;-85
2022/08/30 06:37:13;;;;;;;10.60;4.90;;;;;;;19.14;69.10;99486.83;105711;1281;22566;-86
2022/08/30 06:39:44;;;;;;;10.90;4.80;;;;;;;19.21;69.05;99487.60;105866;1277;22577;-86
2022/08/30 06:42:11;;;;;;;10.40;4.40;;;;;;;19.32;69.08;99485.53;105607;1282;23954;-81
2022/08/30 06:44:38;;;;;;;10.40;4.10;;;;;;;19.46;68.96;99483.50;105998;1277;25248;-83
2022/08/30 06:47:08;;;;;;;14.20;4.40;;;;;;;19.59;68.88;99486.97;105695;1281;22583;-82
2022/08/30 06:49:35;;;;;;;9.60;4.50;;;;;;;19.60;68.78;99485.51;105823;1281;23350;-83
2022/08/30 06:52:07;;;;;;;12.20;4.50;;;;;;;19.77;69.13;99487.98;105799;1281;22571;-84
2022/08/30 06:54:36;;;;;;;8.30;4.50;;;;;;;19.98;68.96;99490.30;105643;1278;22547;-83
2022/08/30 06:57:03;;;;;;;9.50;4.70;;;;;;;20.06;68.81;99491.96;105717;1278;22619;-85
2022/08/30 06:59:33;;;;;;;9.50;4.20;;;;;;;20.02;68.71;99492.77;105915;1281;26761;-83
2022/08/30 07:02:03;;;;;;;9.50;4.30;;;;;;;19.89;68.93;99494.50;105846;1278;25304;-83
2022/08/30 07:04:35;;;;;;;10.80;4.90;;;;;;;19.77;68.88;99497.92;105724;1278;22554;-88
2022/08/30 07:07:05;;;;;;;9.70;5.10;;;;;;;19.67;69.04;99501.04;105722;1278;24212;-83
2022/08/30 07:09:35;;;;;;;11.90;5.50;;;;;;;19.58;68.89;99497.67;105813;1278;24373;-87
2022/08/30 07:12:02;;;;;;;11.70;5.60;;;;;;;19.52;69.21;99501.15;105742;1277;22593;-81
2022/08/30 07:14:32;;;;;;;12.30;6.20;;;;;;;19.50;69.52;99500.29;105744;1281;23208;-86
2022/08/30 07:16:59;;;;;;;15.30;6.00;;;;;;;19.39;68.99;99504.96;105780;1277;22687;-87
2022/08/30 07:19:28;;;;;;;12.40;5.70;;;;;;;19.48;69.04;99505.75;105686;1278;24275;-85
2022/08/30 07:22:03;;;;;;;10.90;5.20;;;;;;;19.56;69.16;99509.08;105847;1278;22581;-86
2022/08/30 07:24:37;;;;;;;11.50;5.50;;;;;;;19.75;68.90;99511.26;105940;1278;25299;-83
2022/08/30 07:27:04;;;;;;;13.40;5.90;;;;;;;19.86;69.01;99512.11;105761;1281;25551;-85
2022/08/30 07:29:30;;;;;;;12.30;5.60;;;;;;;19.93;68.92;99512.35;105779;1278;26679;-83
2022/08/30 07:31:58;;;;;;;12.00;5.30;;;;;;;19.96;68.91;99515.39;105838;1278;22579;-84
2022/08/30 07:34:26;;;;;;;13.30;5.30;;;;;;;19.98;69.02;99511.41;105717;1277;25511;-82
2022/08/30 07:36:55;;;;;;;13.20;5.10;;;;;;;20.01;69.01;99519.26;105829;1281;22694;-84
2022/08/30 07:39:22;;;;;;;10.70;5.70;;;;;;;20.10;69.06;99519.72;105712;1281;22544;-83
2022/08/30 07:41:49;;;;;;;9.90;5.00;;;;;;;20.26;68.73;99521.20;105848;1281;22587;-86
2022/08/30 07:44:19;;;;;;;10.70;4.50;;;;;;;20.44;68.27;99518.39;105739;1277;25839;-82
2022/08/30 07:46:48;;;;;;;11.90;4.70;;;;;;;20.57;68.28;99516.67;105790;1278;22655;-82
2022/08/30 07:49:18;;;;;;;9.90;4.00;;;;;;;20.49;68.47;99527.77;105953;1276;24309;-83
2022/08/30 07:51:48;;;;;;;12.70;4.70;;;;;;;20.37;68.43;99531.36;105677;1278;25616;-83
2022/08/30 07:54:18;;;;;;;13.40;4.50;;;;;;;20.18;68.22;99528.92;105803;1277;25372;-83
2022/08/30 07:56:45;;;;;;;10.30;4.00;;;;;;;19.90;68.41;99534.70;105745;1281;24239;-82
2022/08/30 07:59:13;;;;;;;10.30;4.20;;;;;;;19.70;68.33;99531.09;105854;1278;23788;-85
2022/08/30 08:01:40;;;;;;;11.00;4.60;;;;;;;19.54;68.69;99535.14;105722;1278;22558;-82
2022/08/30 08:04:07;;;;;;;11.60;4.80;;;;;;;19.40;68.71;99536.70;105698;1277;22504;-84
2022/08/30 08:06:38;;;;;;;10.60;4.00;;;;;;;19.39;69.08;99540.20;105507;1281;25456;-81
2022/08/30 08:09:06;;;;;;;9.90;4.30;;;;;;;19.70;69.38;99540.13;105819;1278;22557;-83
2022/08/30 08:11:41;;;;;;;9.90;3.90;;;;;;;20.10;68.91;99538.50;105709;1278;22567;-84
2022/08/30 08:14:09;;;;;;;10.40;4.60;;;;;;;20.50;68.78;99543.22;105658;1278;23927;-85
2022/08/30 08:16:41;;;;;;;10.40;4.70;;;;;;;20.80;68.44;99544.23;105640;1278;25248;-82
2022/08/30 08:19:13;;;;;;;9.80;4.40;;;;;;;21.05;68.37;99548.20;105728;1279;23183;-84
2022/08/30 08:21:40;;;;;;;10.40;3.40;;;;;;;21.13;68.22;99544.06;105689;1278;22653;-87
2022/08/30 08:24:07;;;;;;;12.10;5.00;;;;;;;21.15;67.58;99542.04;105653;1278;22596;-83
2022/08/30 08:26:36;;;;;;;9.40;4.40;;;;;;;20.88;67.61;99545.94;105801;1277;25483;-82
2022/08/30 08:29:05;;;;;;;10.50;4.60;;;;;;;20.82;67.80;99546.50;105859;1277;23233;-87
2022/08/30 08:31:32;;;;;;;10.20;4.80;;;;;;;20.75;67.84;99552.89;105972;1278;23196;-82
2022/08/30 08:34:10;;;;;;;10.50;5.50;;;;;;;20.65;67.95;99555.38;105904;1279;24239;-87
2022/08/30 08:36:37;;;;;;;14.20;5.20;;;;;;;20.73;67.73;99553.55;105759;1278;22563;-88
2022/08/30 08:39:09;;;;;;;7.90;3.70;;;;;;;20.67;68.05;99554.44;105776;1282;22178;-82
2022/08/30 08:42:04;;;;;;;7.80;3.20;;;;;;;20.61;68.02;99561.46;105854;1281;25347;-81
2022/08/30 08:44:44;;;;;;;7.20;3.10;;;;;;;20.43;68.07;99564.34;106084;1278;22684;-82
2022/08/30 08:47:38;;;;;;;7.90;3.10;;;;;;;20.56;68.40;99560.73;106045;1277;24306;-82
2022/08/30 08:50:13;;;;;;;9.10;2.80;;;;;;;20.93;68.66;99557.52;105874;1278;25346;-83
2022/08/30 08:55:50;;;;;;;8.60;3.10;;;;;;;21.62;68.51;99547.09;105668;1278;22558;-85
2022/08/30 08:58:29;;;;;;;6.80;2.80;;;;;;;22.03;68.53;99543.91;105638;1278;23897;-83
2022/08/30 09:00:57;;;;;;;7.90;2.60;;;;;;;22.33;67.54;99542.21;105751;1277;23059;-82
2022/08/30 09:03:30;;;;;;;7.80;2.70;;;;;;;22.49;67.55;99541.98;105481;1278;22687;-85
2022/08/30 09:06:00;;;;;;;6.80;3.10;;;;;;;22.79;67.69;99539.45;105698;1278;22524;-84
2022/08/30 09:08:27;;;;;;;6.50;2.50;;;;;;;22.65;66.71;99543.73;105707;1278;25241;-80
2022/08/30 09:11:00;;;;;;;8.40;2.70;;;;;;;22.31;66.93;99548.79;105867;1278;22535;-84
2022/08/30 09:13:33;;;;;;;8.00;2.40;;;;;;;22.18;67.46;99550.83;105825;1280;22565;-82
2022/08/30 09:16:00;;;;;;;7.40;2.70;;;;;;;22.43;67.49;99548.31;105982;1278;22551;-84
2022/08/30 09:18:49;;;;;;;6.50;2.00;;;;;;;22.55;67.33;99545.48;105840;1278;23175;-83
2022/08/30 09:21:23;;;;;;;10.60;2.30;;;;;;;22.47;66.85;99543.30;105773;1278;26473;-83
2022/08/30 09:24:00;;;;;;;6.80;2.30;;;;;;;22.26;66.49;99544.57;105837;1278;24277;-84
2022/08/30 09:26:36;;;;;;;7.10;2.40;;;;;;;22.31;67.12;99542.02;106003;1277;22562;-86
2022/08/30 09:29:04;;;;;;;7.40;2.60;;;;;;;22.37;67.07;99539.17;105932;1278;22697;-84
2022/08/30 09:31:47;;;;;;;6.40;2.40;;;;;;;22.61;66.84;99532.86;105940;1277;25468;-81
2022/08/30 09:34:18;;;;;;;5.70;2.30;;;;;;;22.76;66.63;99533.62;105800;1277;22565;-83
2022/08/30 09:36:50;;;;;;;11.80;2.70;;;;;;;22.64;66.26;99533.77;106115;1278;22664;-84
2022/08/30 09:39:32;;;;;;;7.40;2.30;;;;;;;22.51;66.62;99537.80;105812;1278;22570;-84
2022/08/30 09:42:13;;;;;;;7.80;2.20;;;;;;;22.66;66.97;99529.50;105925;1278;25233;-82
2022/08/30 09:44:40;;;;;;;9.30;2.90;;;;;;;22.91;66.69;99528.30;105895;1278;22538;-84
2022/08/30 09:47:30;;;;;;;8.20;2.50;;;;;;;22.72;66.23;99524.14;105821;1278;25577;-84
2022/08/30 09:50:09;;;;;;;13.80;2.30;;;;;;;22.49;66.13;99527.13;105804;1280;22548;-84
2022/08/30 09:52:59;;;;;;;12.10;2.00;;;;;;;22.60;66.32;99522.96;105825;1276;24456;-83
2022/08/30 09:55:52;;;;;;;9.90;2.00;;;;;;;22.82;66.15;99526.01;105824;1276;26717;-84
2022/08/30 09:58:30;;;;;;;5.70;2.00;;;;;;;23.00;65.96;99525.59;105851;1278;25247;-82
2022/08/30 10:01:24;;;;;;;6.00;2.20;;;;;;;23.12;65.60;99517.26;105926;1278;22593;-84
2022/08/30 10:04:04;;;;;;;7.20;2.70;;;;;;;23.36;65.80;99517.16;105651;1277;22682;-84
2022/08/30 10:07:23;;;;;;;19.00;10.70;;;;;;;23.57;66.16;99512.86;106098;1277;22887;-83
2022/08/30 10:10:18;;;;;;;7.90;3.00;;;;;;;24.07;65.90;99517.18;105846;1278;22631;-86
2022/08/30 10:13:15;;;;;;;6.60;2.30;;;;;;;24.27;65.43;99523.36;105867;1277;24416;-87
2022/08/30 10:16:38;;;;;;;6.50;2.30;;;;;;;24.10;64.93;99522.65;105891;1278;22554;-83
2022/08/30 10:19:28;;;;;;;7.20;2.00;;;;;;;24.10;65.15;99519.83;105266;1286;22593;-84
2022/08/30 10:22:52;;;;;;;;;;;;;;;;;;;;;
2022/08/30 10:25:48;;;;;;;;;;;;;;;;;;;;;
2022/08/30 10:29:04;;;;;;;;;;;;;;;;;;;;;
2022/08/30 10:31:53;;;;;;;9.20;2.20;;;;;;;23.03;65.29;99512.79;104430;1294;25377;-84
2022/08/30 10:34:44;;;;;;;9.10;2.50;;;;;;;23.22;65.58;99507.98;104812;1290;24305;-87
2022/08/30 10:37:23;;;;;;;12.90;2.30;;;;;;;23.52;65.26;99503.14;104414;1291;22557;-84
2022/08/30 10:44:11;;;;;;;7.40;2.30;;;;;;;23.28;64.55;99499.02;104552;1291;24093;-85
2022/08/30 10:46:53;;;;;;;6.70;2.20;;;;;;;23.35;64.82;99500.78;104569;1290;22582;-86
2022/08/30 10:49:36;;;;;;;9.90;2.40;;;;;;;23.39;64.28;99501.41;104677;1292;23253;-85
2022/08/30 10:53:01;;;;;;;5.30;1.60;;;;;;;23.63;64.56;99495.66;104692;1290;22530;-85
2022/08/30 10:55:51;;;;;;;6.90;1.90;;;;;;;23.63;63.82;99494.21;104445;1287;24321;-84
2022/08/30 10:58:41;;;;;;;9.10;2.00;;;;;;;23.67;64.50;99489.58;104981;1285;24283;-84
2022/08/30 11:01:25;;;;;;;6.70;1.90;;;;;;;23.96;64.22;99487.67;104934;1287;22717;-84
2022/08/30 11:04:24;;;;;;;6.20;2.00;;;;;;;24.20;64.22;99488.02;105887;1277;22649;-83
2022/08/30 11:07:46;;;;;;;8.40;2.10;;;;;;;24.34;64.02;99490.10;105919;1278;25344;-84
2022/08/30 11:10:47;;;;;;;6.30;2.00;;;;;;;24.87;64.55;99487.35;106041;1278;22555;-87
2022/08/30 11:13:31;;;;;;;7.30;2.00;;;;;;;25.03;63.01;99486.66;105822;1277;22639;-83
2022/08/30 11:16:26;;;;;;;8.40;2.00;;;;;;;24.54;62.65;99498.39;106078;1276;22610;-84
2022/08/30 11:18:56;;;;;;;8.30;2.20;;;;;;;23.92;62.69;99497.52;105886;1277;22984;-84
2022/08/30 11:21:45;;;;;;;7.80;2.00;;;;;;;23.46;62.88;99492.79;105913;1277;25255;-84
2022/08/30 11:24:25;;;;;;;6.20;2.20;;;;;;;23.21;63.32;99491.14;106060;1277;22815;-86
2022/08/30 11:27:02;;;;;;;5.80;1.80;;;;;;;23.03;63.73;99486.53;105870;1278;24184;-87
2022/08/30 11:29:50;;;;;;;4.90;1.60;;;;;;;23.30;63.96;99488.79;105896;1277;23292;-83
2022/08/30 11:32:24;;;;;;;6.10;1.90;;;;;;;23.46;63.05;99489.84;105830;1277;25496;-86
2022/08/30 11:34:58;;;;;;;5.10;1.70;;;;;;;23.33;62.81;99490.05;105780;1277;24215;-86
2022/08/30 11:37:43;;;;;;;5.50;1.60;;;;;;;23.49;63.78;99482.92;105728;1278;22540;-84
2022/08/30 11:40:12;;;;;;;5.50;1.80;;;;;;;24.02;63.88;99486.67;106002;1276;25231;-83
2022/08/30 11:42:46;;;;;;;5.60;1.60;;;;;;;24.04;62.41;99495.05;105973;1278;24315;-84
2022/08/30 11:45:22;;;;;;;5.50;1.70;;;;;;;23.63;62.20;99494.20;106028;1277;25441;-87
2022/08/30 11:48:18;;;;;;;5.30;1.50;;;;;;;23.30;62.27;99493.69;105872;1277;22641;-87
2022/08/30 11:51:07;;;;;;;5.10;1.50;;;;;;;23.11;62.53;99486.95;105710;1277;25387;-85
2022/08/30 11:54:19;;;;;;;14.50;2.90;;;;;;;23.24;62.80;99484.52;105917;1277;22534;-89
2022/08/30 11:57:10;;;;;;;10.20;2.50;;;;;;;23.43;62.62;99487.80;105281;1285;22610;-85
2022/08/30 12:00:28;;;;;;;8.00;2.10;;;;;;;23.70;62.19;99482.55;105203;1287;22554;-84
2022/08/30 12:03:04;;;;;;;6.30;1.70;;;;;;;23.91;62.21;99479.74;105190;1285;22556;-85
2022/08/30 12:05:37;;;;;;;5.50;1.90;;;;;;;24.01;61.90;99478.98;105316;1287;22550;-87
2022/08/30 12:08:07;;;;;;;5.50;2.00;;;;;;;24.21;62.27;99476.58;105084;1287;22631;-88
2022/08/30 12:11:02;;;;;;;6.20;1.60;;;;;;;24.45;61.82;99474.68;105224;1287;22477;-89
2022/08/30 12:13:40;;;;;;;8.30;2.00;;;;;;;24.39;60.73;99472.19;105002;1287;22720;-83
2022/08/30 12:16:14;;;;;;;7.10;2.20;;;;;;;24.25;61.66;99471.34;105149;1285;25329;-85